createdAt,value
2019-04-29T00:01:21.674Z,96.80
2019-04-29T00:04:09.945Z,96.64
2019-04-29T00:06:58.783Z,98.29
2019-04-29T00:09:47.051Z,98.07
2019-04-29T00:12:35.916Z,98.79
2019-04-29T00:16:01.357Z,98.77
2019-04-29T00:19:10.622Z,97.50
2019-04-29T00:21:59.118Z,97.88
2019-04-29T00:24:46.783Z,97.37
2019-04-29T00:27:34.740Z,96.36
2019-04-29T00:30:22.575Z,94.46
2019-04-29T00:33:10.864Z,93.73
2019-04-29T00:35:58.884Z,93.48
2019-04-29T00:39:08.186Z,94.11
2019-04-29T00:42:14.213Z,93.23
2019-04-29T00:45:02.084Z,92.61
2019-04-29T00:47:50.024Z,92.30
2019-04-29T00:50:38.444Z,92.10
2019-04-29T00:53:26.877Z,92.03
2019-04-29T00:56:15.100Z,91.43
2019-04-29T00:59:04.004Z,91.26
2019-04-29T01:01:53.419Z,91.51
2019-04-29T01:04:42.347Z,91.28
2019-04-29T01:07:30.904Z,91.56
2019-04-29T01:10:19.450Z,91.12
2019-04-29T01:13:08.005Z,91.70
2019-04-29T01:15:56.742Z,91.37
2019-04-29T01:18:45.464Z,91.94
2019-04-29T01:21:33.882Z,93.04
2019-04-29T01:24:22.498Z,93.89
2019-04-29T01:27:18.975Z,95.97
2019-04-29T01:30:08.360Z,95.89
2019-04-29T01:32:59.739Z,95.78
2019-04-29T01:35:49.524Z,95.16
2019-04-29T01:38:37.305Z,94.42
2019-04-29T01:41:29.983Z,95.28
2019-04-29T01:44:18.577Z,97.66
2019-04-29T01:47:07.365Z,100.00
2019-04-29T01:49:55.548Z,100.00
2019-04-29T01:52:44.036Z,100.00
2019-04-29T01:55:32.094Z,100.00
2019-04-29T01:58:20.502Z,100.00
2019-04-29T02:01:08.680Z,100.00
2019-04-29T02:03:57.226Z,99.23
2019-04-29T02:06:45.424Z,98.56
2019-04-29T02:09:41.523Z,99.07
2019-04-29T02:12:29.616Z,98.49
2019-04-29T02:15:18.312Z,98.33
2019-04-29T02:18:06.968Z,96.61
2019-04-29T02:20:55.136Z,97.22
2019-04-29T02:23:50.788Z,96.74
2019-04-29T02:26:38.500Z,97.02
2019-04-29T02:29:26.998Z,96.45
2019-04-29T02:32:16.066Z,96.46
2019-04-29T02:35:04.673Z,96.77
2019-04-29T02:37:52.575Z,97.45
2019-04-29T02:40:53.582Z,97.44
2019-04-29T02:43:43.194Z,96.89
2019-04-29T02:46:31.699Z,97.16
2019-04-29T02:49:21.043Z,98.23
2019-04-29T02:52:09.175Z,99.93
2019-04-29T02:54:59.732Z,100.00
2019-04-29T02:58:00.171Z,100.00
2019-04-29T03:01:10.041Z,100.00
2019-04-29T03:04:14.258Z,100.00
2019-04-29T03:07:03.084Z,100.00
2019-04-29T03:09:51.306Z,100.00
2019-04-29T03:12:39.905Z,100.00
2019-04-29T03:15:33.331Z,100.00
2019-04-29T03:18:23.510Z,100.00
2019-04-29T03:21:20.378Z,100.00
2019-04-29T03:24:08.794Z,100.00
2019-04-29T03:26:56.570Z,100.00
2019-04-29T03:29:45.208Z,100.00
2019-04-29T03:32:33.785Z,100.00
2019-04-29T03:35:21.972Z,100.00
2019-04-29T03:38:10.419Z,100.00
2019-04-29T03:40:58.976Z,100.00
2019-04-29T03:43:47.515Z,100.00
2019-04-29T03:46:35.829Z,100.00
2019-04-29T03:49:24.340Z,100.00
2019-04-29T03:52:12.407Z,99.33
2019-04-29T03:55:00.005Z,98.43
2019-04-29T03:57:48.048Z,97.98
2019-04-29T04:00:36.642Z,98.85
2019-04-29T04:03:50.033Z,97.85
2019-04-29T04:06:43.234Z,97.57
2019-04-29T04:09:33.036Z,97.61
2019-04-29T04:12:21.043Z,96.67
2019-04-29T04:15:10.334Z,95.20
2019-04-29T04:18:12.910Z,93.92
2019-04-29T04:21:01.589Z,91.61
2019-04-29T04:23:50.287Z,90.58
2019-04-29T04:26:38.856Z,90.37
2019-04-29T04:29:27.000Z,90.43
2019-04-29T04:32:15.881Z,90.45
2019-04-29T04:35:04.601Z,90.87
2019-04-29T04:37:52.680Z,90.34
2019-04-29T04:40:45.367Z,92.16
2019-04-29T04:43:36.107Z,92.67
2019-04-29T04:46:24.330Z,91.45
2019-04-29T04:49:15.778Z,90.77
2019-04-29T04:52:02.465Z,91.07
2019-04-29T04:54:53.131Z,90.88
2019-04-29T04:57:41.550Z,89.41
2019-04-29T05:00:31.680Z,89.66
2019-04-29T05:03:20.064Z,88.40
2019-04-29T05:06:08.610Z,86.61
2019-04-29T05:08:56.748Z,87.82
2019-04-29T05:11:45.287Z,88.09
2019-04-29T05:14:41.322Z,93.00
2019-04-29T05:17:29.709Z,93.98
2019-04-29T05:20:18.278Z,92.99
2019-04-29T05:23:06.351Z,90.43
2019-04-29T05:25:56.912Z,88.35
2019-04-29T05:28:45.187Z,87.99
2019-04-29T05:31:33.720Z,90.21
2019-04-29T05:34:23.827Z,87.37
2019-04-29T05:37:19.235Z,89.35
2019-04-29T05:40:07.434Z,88.53
2019-04-29T05:42:55.952Z,89.20
2019-04-29T05:45:54.036Z,89.86
2019-04-29T05:48:42.231Z,86.80
2019-04-29T05:51:36.746Z,84.92
2019-04-29T05:54:26.943Z,82.99
2019-04-29T05:57:15.651Z,80.58
2019-04-29T06:00:04.632Z,80.70
2019-04-29T06:02:52.998Z,78.63
2019-04-29T06:05:41.381Z,76.50
2019-04-29T06:08:29.731Z,76.71
2019-04-29T06:11:18.849Z,77.94
2019-04-29T06:14:07.356Z,76.69
2019-04-29T06:16:57.600Z,76.54
2019-04-29T06:19:45.204Z,76.40
2019-04-29T06:22:33.403Z,75.10
2019-04-29T06:25:21.662Z,72.46
2019-04-29T06:28:09.842Z,73.17
2019-04-29T06:30:58.674Z,71.81
2019-04-29T06:33:47.099Z,70.38
2019-04-29T06:36:34.921Z,69.24
2019-04-29T06:39:23.439Z,68.78
2019-04-29T06:42:15.575Z,69.19
2019-04-29T06:45:02.193Z,68.62
2019-04-29T06:47:50.909Z,67.10
2019-04-29T06:50:40.840Z,66.67
2019-04-29T06:53:28.759Z,65.78
2019-04-29T06:56:17.220Z,65.05
2019-04-29T06:59:07.516Z,63.96
2019-04-29T07:01:55.268Z,62.38
2019-04-29T07:04:43.399Z,60.02
2019-04-29T07:07:34.791Z,59.45
2019-04-29T07:10:26.961Z,60.34
2019-04-29T07:13:13.815Z,60.61
2019-04-29T07:16:02.915Z,60.78
2019-04-29T07:18:53.552Z,62.19
2019-04-29T07:21:41.923Z,61.21
2019-04-29T07:24:29.421Z,59.27
2019-04-29T07:27:17.012Z,59.82
2019-04-29T07:30:08.017Z,59.73
2019-04-29T07:32:56.070Z,60.04
2019-04-29T07:35:47.995Z,59.34
2019-04-29T07:38:41.706Z,56.97
2019-04-29T07:41:25.695Z,55.90
2019-04-29T07:44:18.256Z,56.90
2019-04-29T07:47:03.237Z,54.49
2019-04-29T07:49:53.027Z,54.62
2019-04-29T07:52:41.115Z,54.88
2019-04-29T07:55:30.862Z,54.87
2019-04-29T07:58:18.520Z,53.93
2019-04-29T08:01:06.875Z,53.35
2019-04-29T08:03:56.119Z,52.91
2019-04-29T08:06:44.908Z,51.53
2019-04-29T08:09:33.526Z,50.79
2019-04-29T08:12:23.756Z,51.48
2019-04-29T08:15:12.336Z,52.96
2019-04-29T08:18:06.612Z,52.47
2019-04-29T08:20:50.296Z,48.50
2019-04-29T08:23:42.265Z,49.18
2019-04-29T08:26:28.543Z,50.08
2019-04-29T08:29:17.173Z,49.52
2019-04-29T08:32:05.659Z,51.17
2019-04-29T08:34:57.329Z,48.17
2019-04-29T08:37:42.799Z,48.83
2019-04-29T08:40:34.016Z,46.53
2019-04-29T08:43:42.089Z,48.71
2019-04-29T08:46:51.671Z,46.87
2019-04-29T08:49:38.482Z,48.66
2019-04-29T08:52:27.021Z,44.30
2019-04-29T08:55:15.373Z,44.68
2019-04-29T08:58:06.922Z,44.65
2019-04-29T09:00:55.836Z,44.68
2019-04-29T09:03:43.374Z,44.94
2019-04-29T09:06:32.545Z,45.66
2019-04-29T09:09:29.306Z,44.06
2019-04-29T09:12:11.784Z,46.30
2019-04-29T09:14:59.558Z,44.82
2019-04-29T09:17:47.367Z,44.39
2019-04-29T09:20:35.984Z,45.72
2019-04-29T09:23:26.613Z,44.49
2019-04-29T09:26:24.545Z,44.15
2019-04-29T09:29:31.429Z,45.28
2019-04-29T09:32:19.348Z,44.46
2019-04-29T09:35:07.911Z,42.28
2019-04-29T09:37:58.402Z,44.17
2019-04-29T09:40:54.579Z,42.26
2019-04-29T09:43:52.130Z,42.11
2019-04-29T09:46:39.892Z,42.37
2019-04-29T09:49:27.961Z,41.73
2019-04-29T09:52:16.615Z,41.37
2019-04-29T09:55:05.852Z,39.72
2019-04-29T09:57:54.824Z,38.81
2019-04-29T10:01:02.077Z,39.54
2019-04-29T10:04:11.520Z,39.75
2019-04-29T10:06:59.941Z,41.67
2019-04-29T10:09:56.801Z,40.87
2019-04-29T10:12:38.605Z,40.00
2019-04-29T10:15:35.802Z,40.93
2019-04-29T10:18:29.756Z,34.34
2019-04-29T10:21:21.368Z,38.18
2019-04-29T10:24:07.735Z,36.76
2019-04-29T10:26:55.780Z,34.98
2019-04-29T10:29:46.239Z,33.18
2019-04-29T10:32:37.684Z,31.46
2019-04-29T10:35:23.170Z,33.51
2019-04-29T10:38:11.696Z,34.27
2019-04-29T10:41:12.794Z,34.40
2019-04-29T10:44:25.842Z,34.24
2019-04-29T10:47:31.052Z,34.47
2019-04-29T10:50:26.213Z,33.46
2019-04-29T10:53:15.655Z,31.88
2019-04-29T10:56:05.736Z,35.07
2019-04-29T10:58:53.105Z,34.63
2019-04-29T11:02:09.397Z,33.57
2019-04-29T11:04:57.564Z,33.28
2019-04-29T11:07:45.641Z,32.17
2019-04-29T11:10:33.956Z,33.56
2019-04-29T11:13:22.524Z,31.52
2019-04-29T11:16:12.607Z,29.88
2019-04-29T11:19:05.168Z,29.31
2019-04-29T11:21:50.468Z,27.47
2019-04-29T11:25:06.392Z,25.79
2019-04-29T11:27:56.747Z,25.92
2019-04-29T11:30:44.228Z,26.05
2019-04-29T11:33:51.640Z,25.89
2019-04-29T11:36:43.955Z,27.97
2019-04-29T11:39:29.840Z,25.85
2019-04-29T11:42:18.917Z,25.22
2019-04-29T11:45:09.582Z,24.75
2019-04-29T11:47:58.071Z,24.87
2019-04-29T11:50:54.945Z,24.45
2019-04-29T11:53:41.426Z,25.68
2019-04-29T11:56:30.330Z,22.67
2019-04-29T11:59:37.104Z,24.01
2019-04-29T12:02:47.848Z,23.07
2019-04-29T12:05:44.893Z,22.54
2019-04-29T12:08:33.044Z,22.70
2019-04-29T12:11:22.717Z,25.00
2019-04-29T12:14:39.150Z,24.02
2019-04-29T12:17:31.577Z,23.19
2019-04-29T12:20:28.314Z,22.25
2019-04-29T12:23:00.425Z,24.94
2019-04-29T12:25:30.645Z,23.36
2019-04-29T12:28:01.977Z,23.05
2019-04-29T12:30:36.392Z,23.93
2019-04-29T12:33:37.008Z,24.65
2019-04-29T12:36:11.137Z,24.92
2019-04-29T12:39:08.672Z,25.55
2019-04-29T12:41:51.341Z,24.58
2019-04-29T12:44:45.741Z,24.16
2019-04-29T12:47:26.860Z,25.30
2019-04-29T12:49:53.844Z,24.96
2019-04-29T12:52:23.670Z,23.96
2019-04-29T12:54:53.036Z,23.00
2019-04-29T12:57:23.419Z,23.65
2019-04-29T12:59:54.652Z,22.71
2019-04-29T13:02:55.578Z,21.68
2019-04-29T13:05:58.832Z,23.26
2019-04-29T13:08:35.522Z,20.67
2019-04-29T13:11:06.266Z,21.36
2019-04-29T13:13:35.606Z,21.71
2019-04-29T13:16:26.978Z,24.43
2019-04-29T13:19:12.257Z,26.25
2019-04-29T13:21:39.023Z,26.89
2019-04-29T13:24:21.799Z,27.22
2019-04-29T13:26:42.234Z,27.28
2019-04-29T13:29:08.879Z,26.09
2019-04-29T13:31:39.200Z,26.76
2019-04-29T13:34:23.602Z,26.53
2019-04-29T13:36:41.669Z,26.82
2019-04-29T13:39:10.995Z,26.83
2019-04-29T13:41:57.301Z,26.13
2019-04-29T13:44:12.076Z,25.45
2019-04-29T13:47:12.411Z,24.26
2019-04-29T13:49:49.788Z,26.15
2019-04-29T13:52:22.374Z,23.84
2019-04-29T13:54:51.965Z,24.36
2019-04-29T13:57:23.079Z,24.42
2019-04-29T14:00:10.313Z,23.68
2019-04-29T14:02:43.406Z,23.43
2019-04-29T14:05:14.024Z,23.49
2019-04-29T14:07:43.352Z,23.05
2019-04-29T14:10:14.928Z,23.17
2019-04-29T14:12:48.758Z,22.49
2019-04-29T14:15:15.213Z,21.64
2019-04-29T14:17:44.617Z,21.97
2019-04-29T14:20:17.476Z,20.35
2019-04-29T14:22:49.384Z,20.42
2019-04-29T14:25:18.701Z,20.22
2019-04-29T14:27:48.085Z,21.42
2019-04-29T14:30:20.969Z,20.15
2019-04-29T14:32:54.078Z,20.88
2019-04-29T14:35:51.583Z,23.25
2019-04-29T14:38:24.120Z,24.87
2019-04-29T14:40:51.974Z,23.35
2019-04-29T14:43:58.251Z,23.55
2019-04-29T14:46:55.935Z,23.61
2019-04-29T14:49:26.535Z,22.07
2019-04-29T14:51:55.842Z,22.14
2019-04-29T14:54:25.166Z,21.60
2019-04-29T14:56:55.033Z,20.80
2019-04-29T14:59:24.657Z,20.60
2019-04-29T15:01:59.157Z,20.21
2019-04-29T15:04:32.588Z,19.50
2019-04-29T15:07:01.956Z,19.36
2019-04-29T15:09:31.424Z,22.16
2019-04-29T15:12:23.963Z,21.95
2019-04-29T15:15:15.137Z,21.50
2019-04-29T15:18:15.589Z,26.03
2019-04-29T15:20:45.959Z,28.08
2019-04-29T15:23:27.924Z,30.20
2019-04-29T15:25:46.279Z,31.50
2019-04-29T15:28:18.718Z,31.58
2019-04-29T15:30:46.988Z,31.67
2019-04-29T15:33:16.334Z,32.18
2019-04-29T15:35:45.671Z,33.55
2019-04-29T15:38:15.456Z,34.72
2019-04-29T15:40:44.886Z,34.29
2019-04-29T15:43:17.845Z,35.00
2019-04-29T15:45:45.211Z,34.06
2019-04-29T15:48:15.071Z,34.41
2019-04-29T15:50:44.454Z,34.13
2019-04-29T15:53:14.240Z,34.84
2019-04-29T15:55:43.564Z,34.74
2019-04-29T15:58:12.918Z,35.05
2019-04-29T16:00:42.306Z,34.70
2019-04-29T16:03:12.720Z,36.91
2019-04-29T16:06:21.036Z,36.65
2019-04-29T16:08:59.406Z,38.37
2019-04-29T16:12:14.043Z,39.75
2019-04-29T16:14:36.852Z,39.46
2019-04-29T16:17:06.167Z,38.72
2019-04-29T16:19:35.550Z,38.52
2019-04-29T16:22:05.096Z,39.24
2019-04-29T16:24:38.403Z,39.93
2019-04-29T16:27:08.603Z,40.49
2019-04-29T16:29:36.361Z,41.42
2019-04-29T16:32:08.225Z,41.98
2019-04-29T16:34:45.149Z,42.30
2019-04-29T16:37:09.099Z,42.62
2019-04-29T16:39:38.433Z,42.57
2019-04-29T16:42:25.235Z,42.81
2019-04-29T16:44:54.888Z,43.33
2019-04-29T16:47:24.360Z,43.17
2019-04-29T16:49:57.558Z,43.84
2019-04-29T16:52:24.672Z,44.03
2019-04-29T16:54:59.122Z,44.50
2019-04-29T16:57:25.551Z,44.95
2019-04-29T16:59:54.972Z,44.65
2019-04-29T17:02:24.908Z,45.82
2019-04-29T17:04:54.344Z,46.14
2019-04-29T17:07:23.673Z,46.71
2019-04-29T17:10:10.565Z,45.65
2019-04-29T17:12:46.980Z,46.54
2019-04-29T17:15:25.242Z,47.64
2019-04-29T17:17:50.616Z,49.30
2019-04-29T17:20:20.049Z,50.91
2019-04-29T17:22:50.419Z,49.96
2019-04-29T17:25:19.762Z,49.22
2019-04-29T17:28:11.894Z,50.12
2019-04-29T17:31:13.451Z,52.17
2019-04-29T17:34:00.539Z,53.07
2019-04-29T17:36:30.421Z,54.65
2019-04-29T17:38:59.754Z,53.05
2019-04-29T17:41:29.143Z,54.30
2019-04-29T17:44:27.201Z,55.67
2019-04-29T17:47:21.951Z,56.21
2019-04-29T17:50:30.396Z,55.25
2019-04-29T17:52:57.052Z,57.70
2019-04-29T17:55:38.744Z,57.14
2019-04-29T17:58:11.943Z,57.94
2019-04-29T18:01:02.587Z,59.25
2019-04-29T18:03:50.159Z,58.04
2019-04-29T18:06:28.104Z,60.72
2019-04-29T18:09:29.418Z,58.17
2019-04-29T18:12:11.634Z,58.45
2019-04-29T18:14:44.923Z,59.32
2019-04-29T18:20:44.861Z,57.23
2019-04-29T18:23:37.682Z,60.15
2019-04-29T18:26:38.354Z,61.48
2019-04-29T18:29:20.403Z,62.98
2019-04-29T18:32:05.214Z,62.05
2019-04-29T18:34:43.100Z,63.63
2019-04-29T18:37:24.854Z,62.15
2019-04-29T18:39:57.770Z,64.22
2019-04-29T18:42:43.158Z,64.98
2019-04-29T18:45:09.009Z,65.16
2019-04-29T18:47:38.980Z,66.34
2019-04-29T18:50:09.414Z,65.69
2019-04-29T18:52:39.084Z,64.95
2019-04-29T18:55:08.707Z,66.60
2019-04-29T18:57:38.700Z,66.34
2019-04-29T19:00:11.989Z,67.30
2019-04-29T19:02:47.398Z,65.99
2019-04-29T19:05:32.236Z,64.56
2019-04-29T19:08:11.391Z,66.01
2019-04-29T19:10:34.410Z,67.52
2019-04-29T19:13:07.119Z,67.98
2019-04-29T19:15:35.360Z,66.91
2019-04-29T19:18:07.609Z,66.66
2019-04-29T19:20:35.989Z,67.18
2019-04-29T19:23:09.946Z,67.17
2019-04-29T19:25:41.417Z,67.90
2019-04-29T19:28:14.353Z,68.40
2019-04-29T19:30:40.602Z,69.11
2019-04-29T19:33:10.313Z,68.61
2019-04-29T19:35:41.219Z,69.38
2019-04-29T19:38:12.382Z,69.94
2019-04-29T19:40:42.742Z,70.48
2019-04-29T19:43:15.376Z,69.17
2019-04-29T19:45:44.761Z,69.33
2019-04-29T19:48:16.130Z,70.02
2019-04-29T19:50:51.679Z,69.72
2019-04-29T19:53:18.623Z,70.24
2019-04-29T19:56:01.266Z,69.72
2019-04-29T19:58:28.416Z,69.94
2019-04-29T20:00:52.256Z,69.52
2019-04-29T20:03:26.623Z,69.73
2019-04-29T20:06:07.949Z,70.03
2019-04-29T20:08:50.178Z,70.81
2019-04-29T20:11:11.578Z,72.12
2019-04-29T20:13:33.702Z,72.17
2019-04-29T20:16:42.637Z,71.86
2019-04-29T20:19:21.345Z,71.61
2019-04-29T20:21:51.508Z,74.47
2019-04-29T20:24:23.497Z,73.99
2019-04-29T20:26:52.283Z,73.01
2019-04-29T20:29:27.280Z,72.75
2019-04-29T20:31:56.208Z,73.51
2019-04-29T20:34:27.956Z,72.31
2019-04-29T20:36:55.830Z,70.86
2019-04-29T20:39:26.233Z,71.27
2019-04-29T20:41:56.147Z,73.24
2019-04-29T20:44:25.910Z,77.66
2019-04-29T20:47:15.764Z,78.29
2019-04-29T20:49:30.926Z,78.42
2019-04-29T20:52:05.655Z,76.57
2019-04-29T20:54:35.764Z,75.18
2019-04-29T20:57:12.030Z,75.55
2019-04-29T20:59:36.237Z,74.29
2019-04-29T21:02:12.441Z,75.77
2019-04-29T21:04:45.858Z,74.38
2019-04-29T21:07:09.422Z,75.46
2019-04-29T21:09:39.251Z,75.83
2019-04-29T21:12:20.621Z,75.75
2019-04-29T21:14:53.644Z,77.78
2019-04-29T21:17:29.413Z,82.11
2019-04-29T21:19:54.782Z,82.55
2019-04-29T21:22:26.029Z,81.86
2019-04-29T21:24:55.486Z,81.23
2019-04-29T21:27:26.007Z,79.82
2019-04-29T21:29:55.545Z,77.50
2019-04-29T21:32:25.920Z,77.04
2019-04-29T21:35:14.484Z,77.44
2019-04-29T21:37:51.939Z,77.48
2019-04-29T21:40:29.387Z,78.56
2019-04-29T21:43:13.354Z,82.39
2019-04-29T21:45:39.927Z,85.25
2019-04-29T21:48:07.942Z,83.63
2019-04-29T21:50:38.127Z,82.84
2019-04-29T21:53:07.647Z,82.38
2019-04-29T21:55:36.969Z,81.81
2019-04-29T21:58:06.296Z,80.60
2019-04-29T22:00:37.418Z,79.67
2019-04-29T22:03:07.019Z,80.33
2019-04-29T22:05:36.860Z,83.92
2019-04-29T22:08:06.270Z,85.16
2019-04-29T22:10:36.801Z,84.75
2019-04-29T22:13:06.360Z,83.66
2019-04-29T22:15:39.019Z,81.67
2019-04-29T22:18:13.501Z,81.96
2019-04-29T22:20:42.247Z,81.80
2019-04-29T22:23:13.224Z,81.50
2019-04-29T22:25:41.155Z,81.39
2019-04-29T22:28:15.885Z,80.17
2019-04-29T22:30:45.268Z,82.23
2019-04-29T22:33:15.395Z,82.70
2019-04-29T22:35:45.261Z,83.29
2019-04-29T22:38:16.713Z,83.98
2019-04-29T22:40:46.199Z,86.68
2019-04-29T22:43:25.254Z,86.61
2019-04-29T22:45:54.476Z,85.74
2019-04-29T22:48:25.024Z,84.48
2019-04-29T22:50:55.626Z,84.23
2019-04-29T22:53:25.308Z,84.34
2019-04-29T22:55:57.807Z,84.28
2019-04-29T22:58:27.236Z,85.14
2019-04-29T23:00:56.555Z,83.86
2019-04-29T23:03:25.887Z,86.32
2019-04-29T23:05:55.929Z,86.16
2019-04-29T23:08:29.702Z,88.57
2019-04-29T23:10:59.870Z,90.34
2019-04-29T23:13:31.145Z,90.62
2019-04-29T23:16:02.093Z,92.38
2019-04-29T23:18:41.055Z,94.54
2019-04-29T23:21:20.739Z,97.17
2019-04-29T23:23:55.162Z,96.19
2019-04-29T23:26:24.970Z,96.42
2019-04-29T23:28:55.461Z,95.46
2019-04-29T23:31:27.077Z,93.45
2019-04-29T23:33:56.841Z,93.56
2019-04-29T23:36:26.200Z,92.83
2019-04-29T23:38:56.681Z,92.47
2019-04-29T23:41:32.850Z,92.10
2019-04-29T23:43:59.870Z,92.49
2019-04-29T23:46:29.740Z,96.34
2019-04-29T23:49:03.179Z,98.30
2019-04-29T23:51:34.276Z,99.15
2019-04-29T23:54:05.816Z,99.39
2019-04-29T23:56:38.465Z,100.00
2019-04-29T23:59:18.487Z,98.70
